Time;durP1;ratioP1;P1;durP2;ratioP2;P2;SDS_P1;SDS_P2;PMS_P1;PMS_P2;Temp;Humidity;BMP_temperature;BMP_pressure;BME280_temperature;BME280_humidity;BME280_pressure;Samples;Min_cycle;Max_cycle;Signal;HPM_P1;HPM_P2
2022/06/21 00:00:29;;;;;;;4.35;3.30;;;23.90;99.90;;;;;;6236606;28;82241;-67
2022/06/21 00:03:31;;;;;;;5.72;3.60;;;23.90;99.90;;;;;;6227234;28;82420;-67
2022/06/21 00:06:33;;;;;;;4.45;3.30;;;23.90;99.90;;;;;;6213039;28;81673;-67
2022/06/21 00:09:35;;;;;;;5.78;3.78;;;23.90;99.90;;;;;;6232365;28;83199;-68
2022/06/21 00:12:39;;;;;;;5.65;3.50;;;23.90;99.90;;;;;;6233290;28;82440;-66
2022/06/21 00:15:41;;;;;;;5.35;3.55;;;23.90;99.90;;;;;;6223029;28;82370;-67
2022/06/21 00:18:45;;;;;;;7.57;4.25;;;23.90;99.90;;;;;;6233467;28;82359;-67
2022/06/21 00:21:48;;;;;;;5.78;3.60;;;23.80;99.90;;;;;;6226083;28;82566;-67
2022/06/21 00:24:51;;;;;;;7.82;3.55;;;23.80;99.90;;;;;;6236462;28;81775;-68
2022/06/21 00:27:57;;;;;;;4.82;3.75;;;23.80;99.90;;;;;;6236319;28;82478;-68
2022/06/21 00:30:59;;;;;;;4.70;3.50;;;23.80;99.90;;;;;;6230052;28;82307;-68
2022/06/21 00:34:06;;;;;;;4.57;3.13;;;23.80;99.90;;;;;;6230462;28;82273;-68
2022/06/21 00:37:14;;;;;;;5.22;3.60;;;23.80;99.90;;;;;;6232199;28;82328;-67
2022/06/21 00:40:22;;;;;;;4.65;3.10;;;23.80;99.90;;;;;;6221525;28;82065;-67
2022/06/21 00:43:29;;;;;;;3.67;3.10;;;23.80;99.90;;;;;;6236791;28;82363;-67
2022/06/21 00:46:37;;;;;;;6.90;3.60;;;23.80;99.90;;;;;;6213164;28;82551;-68
2022/06/21 00:49:45;;;;;;;4.28;3.08;;;23.80;99.90;;;;;;6233208;28;82546;-68
2022/06/21 00:52:53;;;;;;;4.88;3.10;;;23.70;99.90;;;;;;6213824;28;82705;-67
2022/06/21 00:55:59;;;;;;;4.65;3.25;;;23.70;99.90;;;;;;6235010;28;82287;-67
2022/06/21 00:59:19;;;;;;;4.20;3.00;;;23.70;99.90;;;;;;6235124;28;82383;-68
2022/06/21 01:02:27;;;;;;;3.47;2.63;;;23.70;99.90;;;;;;6232937;28;82366;-67
2022/06/21 01:05:34;;;;;;;3.22;2.60;;;23.60;99.90;;;;;;6221300;28;82387;-68
2022/06/21 01:08:40;;;;;;;4.18;2.65;;;23.60;99.90;;;;;;6232951;28;81169;-67
2022/06/21 01:11:46;;;;;;;3.67;2.60;;;23.60;99.90;;;;;;6221497;28;82466;-67
2022/06/21 01:14:53;;;;;;;2.78;2.25;;;23.60;99.90;;;;;;6236337;28;82710;-67
2022/06/21 01:17:58;;;;;;;3.63;2.67;;;23.50;99.90;;;;;;6234992;28;82559;-67
2022/06/21 01:21:01;;;;;;;3.60;2.80;;;23.50;99.90;;;;;;6234259;28;82958;-68
2022/06/21 01:24:12;;;;;;;2.92;2.40;;;23.40;99.90;;;;;;6222884;28;81328;-67
2022/06/21 01:27:15;;;;;;;3.92;2.45;;;23.40;99.90;;;;;;6227434;28;83588;-68
2022/06/21 01:30:17;;;;;;;4.00;2.20;;;23.30;98.70;;;;;;6226178;28;82303;-67
2022/06/21 01:33:32;;;;;;;2.42;2.20;;;23.30;98.30;;;;;;6231168;28;81178;-68
2022/06/21 01:36:36;;;;;;;2.85;2.30;;;23.30;98.30;;;;;;6231465;28;82812;-67
2022/06/21 01:39:46;;;;;;;2.55;1.95;;;23.40;97.20;;;;;;6234866;28;82820;-67
2022/06/21 01:42:54;;;;;;;2.75;2.20;;;23.30;95.80;;;;;;6233731;28;81187;-67
2022/06/21 01:46:01;;;;;;;2.72;1.98;;;23.30;95.40;;;;;;6229317;28;82188;-67
2022/06/21 01:49:07;;;;;;;2.38;2.00;;;23.30;95.20;;;;;;6225327;28;82375;-67
2022/06/21 01:52:12;;;;;;;2.47;1.90;;;23.20;94.70;;;;;;6222235;28;82268;-67
2022/06/21 01:55:22;;;;;;;2.08;1.70;;;23.20;94.20;;;;;;6235308;28;82374;-67
2022/06/21 01:58:28;;;;;;;3.25;1.90;;;23.20;94.20;;;;;;6223624;28;82337;-68
2022/06/21 02:01:37;;;;;;;1.90;1.70;;;23.20;93.80;;;;;;6210965;28;82237;-68
2022/06/21 02:04:48;;;;;;;3.05;1.70;;;23.20;94.10;;;;;;6232345;28;82207;-68
2022/06/21 02:07:53;;;;;;;2.25;1.42;;;23.20;93.60;;;;;;6226334;28;82283;-67
2022/06/21 02:10:59;;;;;;;2.08;1.60;;;23.20;93.50;;;;;;6232869;28;81830;-67
2022/06/21 02:17:35;;;;;;;2.10;1.55;;;23.20;92.90;;;;;;6224827;28;80525;-67
2022/06/21 02:20:44;;;;;;;2.53;1.40;;;23.20;92.30;;;;;;6234097;28;82328;-67
2022/06/21 02:23:50;;;;;;;2.42;1.70;;;23.20;92.00;;;;;;6226508;28;82355;-67
2022/06/21 02:26:53;;;;;;;2.80;1.50;;;23.10;91.70;;;;;;6232444;28;83269;-67
2022/06/21 02:29:59;;;;;;;1.80;1.38;;;23.10;91.00;;;;;;6228206;28;82624;-67
2022/06/21 02:33:04;;;;;;;3.97;1.30;;;23.10;91.00;;;;;;6227309;28;82522;-68
2022/06/21 02:36:13;;;;;;;2.63;1.50;;;23.10;91.20;;;;;;6233045;28;82303;-67
2022/06/21 02:39:19;;;;;;;1.95;1.50;;;23.00;91.60;;;;;;6233280;28;83417;-67
2022/06/21 02:42:23;;;;;;;2.17;1.52;;;23.00;91.10;;;;;;6234593;28;82427;-67
2022/06/21 02:45:32;;;;;;;4.00;1.77;;;23.00;91.20;;;;;;6233514;28;81203;-67
2022/06/21 02:48:39;;;;;;;2.72;1.50;;;23.10;91.30;;;;;;6224510;28;82248;-67
2022/06/21 02:51:45;;;;;;;1.67;1.58;;;23.10;91.30;;;;;;6230880;28;83505;-67
2022/06/21 02:54:53;;;;;;;2.10;1.60;;;23.00;91.40;;;;;;6222609;28;82315;-67
2022/06/21 02:57:58;;;;;;;2.22;1.63;;;23.00;91.60;;;;;;6233200;28;82311;-67
2022/06/21 03:01:04;;;;;;;1.85;1.45;;;23.00;91.60;;;;;;6233426;28;82336;-67
2022/06/21 03:04:08;;;;;;;1.92;1.40;;;22.90;91.40;;;;;;6231279;28;82739;-67
2022/06/21 03:07:16;;;;;;;1.73;1.40;;;22.90;91.70;;;;;;6232868;28;81207;-68
2022/06/21 03:10:22;;;;;;;2.80;1.60;;;22.90;91.90;;;;;;6212379;28;82276;-67
2022/06/21 03:13:28;;;;;;;2.55;1.60;;;22.90;92.10;;;;;;6225359;28;82290;-67
2022/06/21 03:16:32;;;;;;;3.30;1.50;;;23.00;92.00;;;;;;6226961;28;81704;-67
2022/06/21 03:19:38;;;;;;;5.10;1.60;;;23.00;92.10;;;;;;6226250;28;82307;-67
2022/06/21 03:22:42;;;;;;;2.47;1.50;;;23.00;92.40;;;;;;6221800;28;82313;-67
2022/06/21 03:25:46;;;;;;;1.63;1.50;;;23.00;92.40;;;;;;6225700;28;82409;-67
2022/06/21 03:28:48;;;;;;;1.73;1.50;;;23.00;92.20;;;;;;6232467;28;82302;-67
2022/06/21 03:31:54;;;;;;;4.18;1.60;;;23.00;92.30;;;;;;6231028;28;82425;-67
2022/06/21 03:34:56;;;;;;;2.60;1.83;;;23.00;91.80;;;;;;6233034;28;84010;-67
2022/06/21 03:37:58;;;;;;;3.30;1.50;;;23.00;92.00;;;;;;6227157;28;83623;-67
2022/06/21 03:44:26;;;;;;;2.80;1.67;;;22.90;91.70;;;;;;6223730;28;82287;-67
2022/06/21 03:47:34;;;;;;;2.38;1.75;;;22.90;91.20;;;;;;6234703;28;84996;-67
2022/06/21 03:50:44;;;;;;;1.90;1.40;;;22.90;91.40;;;;;;6226873;28;83825;-67
2022/06/21 03:53:50;;;;;;;1.70;1.55;;;22.90;91.30;;;;;;6237157;28;84004;-67
2022/06/21 03:56:56;;;;;;;1.63;1.52;;;22.80;91.60;;;;;;6223273;28;84024;-66
2022/06/21 04:00:01;;;;;;;1.65;1.50;;;22.80;91.70;;;;;;6234343;28;83984;-67
2022/06/21 04:03:10;;;;;;;1.52;1.40;;;22.80;92.10;;;;;;6234075;28;84132;-67
2022/06/21 04:06:19;;;;;;;1.58;1.40;;;22.80;92.20;;;;;;6235384;28;83958;-67
2022/06/21 04:09:27;;;;;;;2.28;1.40;;;22.80;92.20;;;;;;6234832;28;83324;-67
2022/06/21 04:12:36;;;;;;;2.97;1.30;;;22.80;92.10;;;;;;6221802;28;83958;-67
2022/06/21 04:15:44;;;;;;;1.92;1.40;;;22.80;92.20;;;;;;6232283;28;84090;-67
2022/06/21 04:18:54;;;;;;;2.58;1.67;;;22.90;92.40;;;;;;6233485;28;84914;-67
2022/06/21 04:22:04;;;;;;;2.53;1.73;;;22.90;92.40;;;;;;6233340;28;84027;-67
2022/06/21 04:25:12;;;;;;;3.30;1.75;;;22.90;92.50;;;;;;6233464;28;83992;-67
2022/06/21 04:28:25;;;;;;;3.60;1.80;;;22.90;92.20;;;;;;6233450;28;83931;-67
2022/06/21 04:31:33;;;;;;;2.47;1.95;;;22.90;91.90;;;;;;6235219;28;83977;-67
2022/06/21 04:34:42;;;;;;;2.35;1.90;;;22.90;91.60;;;;;;6234393;28;82930;-67
2022/06/21 04:37:49;;;;;;;2.30;1.48;;;22.90;91.60;;;;;;6224679;28;84428;-67
2022/06/21 04:40:58;;;;;;;1.77;1.60;;;22.90;91.50;;;;;;6231620;28;83339;-67
2022/06/21 04:44:04;;;;;;;2.97;1.80;;;22.90;91.50;;;;;;6234038;28;83009;-67
2022/06/21 04:47:13;;;;;;;2.72;2.10;;;22.90;91.60;;;;;;6226944;28;84290;-67
2022/06/21 04:50:24;;;;;;;2.65;1.80;;;22.90;91.80;;;;;;6220720;28;85199;-67
2022/06/21 04:53:34;;;;;;;3.30;1.70;;;22.90;91.60;;;;;;6224179;28;84003;-67
2022/06/21 04:56:44;;;;;;;4.00;1.80;;;22.90;91.40;;;;;;6224312;28;84016;-67
2022/06/21 04:59:49;;;;;;;5.55;4.50;;;22.90;91.40;;;;;;6228626;28;84106;-67
2022/06/21 05:02:54;;;;;;;3.05;2.63;;;22.90;92.60;;;;;;6221110;28;82910;-66
2022/06/21 05:05:57;;;;;;;6.80;6.10;;;23.00;93.20;;;;;;6228156;28;84036;-66
2022/06/21 05:08:59;;;;;;;3.65;3.35;;;23.00;93.30;;;;;;6228126;28;84367;-66
2022/06/21 05:12:05;;;;;;;3.88;3.03;;;23.10;93.10;;;;;;6225329;28;82147;-66
2022/06/21 05:15:13;;;;;;;3.15;2.80;;;23.20;92.60;;;;;;6233382;28;83307;-67
2022/06/21 05:18:21;;;;;;;2.80;2.58;;;23.30;92.50;;;;;;6231718;28;84102;-66
2022/06/21 05:21:31;;;;;;;4.75;2.78;;;23.30;92.20;;;;;;6231682;28;85001;-66
2022/06/21 05:24:34;;;;;;;3.03;2.38;;;23.30;92.10;;;;;;6233074;28;84030;-66
2022/06/21 05:27:42;;;;;;;2.90;2.50;;;23.30;92.10;;;;;;6230959;28;82937;-67
2022/06/21 05:30:50;;;;;;;2.92;2.03;;;23.30;92.10;;;;;;6225733;28;83949;-66
2022/06/21 05:33:57;;;;;;;3.08;1.95;;;23.30;92.10;;;;;;6224916;28;84049;-67
2022/06/21 05:37:04;;;;;;;2.92;2.63;;;23.30;92.00;;;;;;6227226;28;84061;-66
2022/06/21 05:40:16;;;;;;;3.13;2.83;;;23.30;92.30;;;;;;6224735;28;84049;-66
2022/06/21 05:43:21;;;;;;;3.35;3.05;;;23.30;92.40;;;;;;6233819;28;82219;-66
2022/06/21 05:46:27;;;;;;;3.10;2.75;;;23.30;92.40;;;;;;6230625;28;83955;-64
2022/06/21 05:49:32;;;;;;;3.92;2.70;;;23.30;92.40;;;;;;6226001;28;83655;-65
2022/06/21 05:52:39;;;;;;;3.55;2.72;;;23.30;92.30;;;;;;6232227;28;84980;-64
2022/06/21 05:55:44;;;;;;;2.38;2.17;;;23.20;92.30;;;;;;6232944;28;84019;-64
2022/06/21 05:58:48;;;;;;;2.88;2.20;;;23.20;92.20;;;;;;6222154;28;83970;-65
2022/06/21 06:01:55;;;;;;;2.63;2.00;;;23.20;92.40;;;;;;6219768;28;84032;-64
2022/06/21 06:05:03;;;;;;;3.85;2.33;;;23.20;92.60;;;;;;6230418;28;83291;-64
2022/06/21 06:08:10;;;;;;;2.97;2.50;;;23.20;92.50;;;;;;6227203;28;83789;-64
2022/06/21 06:11:17;;;;;;;2.20;2.00;;;23.20;92.50;;;;;;6233857;28;82754;-64
2022/06/21 06:14:21;;;;;;;1.98;1.77;;;23.20;92.50;;;;;;6222011;28;83255;-64
2022/06/21 06:17:32;;;;;;;2.10;1.90;;;23.20;92.40;;;;;;6224844;28;84035;-64
2022/06/21 06:20:40;;;;;;;2.30;2.00;;;23.20;92.20;;;;;;6220730;28;84440;-64
2022/06/21 06:23:49;;;;;;;2.60;2.00;;;23.20;92.00;;;;;;6230006;28;85198;-64
2022/06/21 06:26:55;;;;;;;2.72;2.10;;;23.20;92.10;;;;;;6231888;28;84030;-65
2022/06/21 06:30:04;;;;;;;2.72;2.22;;;23.20;92.10;;;;;;6224137;28;84456;-64
2022/06/21 06:33:16;;;;;;;2.95;1.73;;;23.20;92.00;;;;;;6231564;28;84066;-64
2022/06/21 06:36:23;;;;;;;2.08;1.90;;;23.20;91.80;;;;;;6223215;28;82918;-64
2022/06/21 06:39:28;;;;;;;2.00;1.80;;;23.20;91.80;;;;;;6223192;28;84055;-64
2022/06/21 06:42:35;;;;;;;2.38;1.77;;;23.20;91.80;;;;;;6225030;28;83053;-64
2022/06/21 06:45:40;;;;;;;2.15;1.80;;;23.20;91.80;;;;;;6227553;28;82481;-64
2022/06/21 06:48:42;;;;;;;2.47;1.67;;;23.20;91.90;;;;;;6235017;28;84067;-64
2022/06/21 06:51:50;;;;;;;1.98;1.63;;;23.10;92.00;;;;;;6230071;28;84061;-64
2022/06/21 06:55:02;;;;;;;2.92;1.60;;;23.20;92.00;;;;;;6234971;28;85030;-64
2022/06/21 06:58:07;;;;;;;2.03;1.70;;;23.20;91.70;;;;;;6236413;28;82965;-64
2022/06/21 07:01:15;;;;;;;3.17;1.70;;;23.20;91.70;;;;;;6215919;28;84001;-64
2022/06/21 07:04:19;;;;;;;2.10;1.70;;;23.20;91.80;;;;;;6236218;28;84114;-64
2022/06/21 07:07:27;;;;;;;2.85;1.60;;;23.20;91.60;;;;;;6237843;28;84028;-64
2022/06/21 07:10:31;;;;;;;3.35;1.60;;;23.30;91.60;;;;;;6225960;28;84407;-64
2022/06/21 07:13:33;;;;;;;3.03;1.58;;;23.20;91.50;;;;;;6227675;28;83945;-64
2022/06/21 07:16:37;;;;;;;1.83;1.60;;;23.30;91.40;;;;;;6222458;28;83300;-64
2022/06/21 07:19:39;;;;;;;1.90;1.55;;;23.20;91.60;;;;;;6233209;28;84018;-64
2022/06/21 07:22:41;;;;;;;2.35;1.75;;;23.30;91.70;;;;;;6233439;28;84154;-64
2022/06/21 07:25:50;;;;;;;1.70;1.35;;;23.30;91.60;;;;;;6229323;28;85303;-64
2022/06/21 07:28:55;;;;;;;1.67;1.45;;;23.30;91.60;;;;;;6230399;28;84018;-64
2022/06/21 07:32:02;;;;;;;1.60;1.50;;;23.30;91.60;;;;;;6229062;28;84001;-65
2022/06/21 07:35:08;;;;;;;1.73;1.40;;;23.30;91.30;;;;;;6226381;28;84981;-64
2022/06/21 07:38:15;;;;;;;2.00;1.70;;;23.30;91.30;;;;;;6226595;28;84326;-64
2022/06/21 07:41:23;;;;;;;1.80;1.70;;;23.30;91.30;;;;;;6230159;28;84357;-65
2022/06/21 07:44:31;;;;;;;1.70;1.60;;;23.30;91.20;;;;;;6233020;28;83945;-64
2022/06/21 07:47:40;;;;;;;2.15;1.90;;;23.30;91.20;;;;;;6219507;28;83360;-64
2022/06/21 07:50:46;;;;;;;2.33;2.10;;;23.30;90.90;;;;;;6229233;28;83979;-65
2022/06/21 07:53:52;;;;;;;2.15;1.95;;;23.30;91.00;;;;;;6211695;28;84101;-64
2022/06/21 07:57:00;;;;;;;2.17;1.75;;;23.30;91.10;;;;;;6225922;28;83875;-64
2022/06/21 08:00:07;;;;;;;2.00;1.80;;;23.30;91.00;;;;;;6234500;28;83890;-64
2022/06/21 08:06:43;;;;;;;1.90;1.80;;;23.30;90.90;;;;;;6227747;28;83184;-65
2022/06/21 08:09:52;;;;;;;2.40;1.95;;;23.30;90.90;;;;;;6224848;28;84071;-65
2022/06/21 08:12:56;;;;;;;3.50;1.90;;;23.30;90.70;;;;;;6211736;28;84098;-64
2022/06/21 08:16:05;;;;;;;2.90;1.92;;;23.40;90.40;;;;;;6224884;28;84231;-65
2022/06/21 08:19:14;;;;;;;3.15;1.98;;;23.30;90.70;;;;;;6223216;28;83220;-65
2022/06/21 08:22:20;;;;;;;1.80;1.65;;;23.40;90.90;;;;;;6226261;28;84108;-65
2022/06/21 08:25:29;;;;;;;1.75;1.58;;;23.40;90.90;;;;;;6225019;28;84151;-64
2022/06/21 08:28:38;;;;;;;2.42;1.60;;;23.30;90.80;;;;;;6214444;28;83787;-64
2022/06/21 08:31:44;;;;;;;1.40;1.30;;;23.40;90.70;;;;;;6218682;28;84320;-65
2022/06/21 08:34:48;;;;;;;1.50;1.40;;;23.40;90.60;;;;;;6234439;28;84127;-64
2022/06/21 08:37:56;;;;;;;2.45;1.50;;;23.40;90.40;;;;;;6224636;28;84087;-64
2022/06/21 08:45:43;;;;;;;1.90;1.60;;;23.40;90.40;;;;;;6229775;28;84278;-64
2022/06/21 08:49:14;;;;;;;2.08;1.60;;;23.40;89.80;;;;;;6232138;28;84061;-64
2022/06/21 08:52:50;;;;;;;1.85;1.27;;;23.40;88.80;;;;;;6229985;28;83299;-64
2022/06/21 08:55:58;;;;;;;3.08;1.60;;;23.40;88.10;;;;;;6212643;28;83049;-65
2022/06/21 08:59:11;;;;;;;1.88;1.40;;;23.40;88.50;;;;;;6233256;28;84398;-65
2022/06/21 09:02:26;;;;;;;2.35;1.30;;;23.40;88.80;;;;;;6222454;28;84968;-64
2022/06/21 09:05:44;;;;;;;1.70;1.35;;;23.40;88.20;;;;;;6223021;28;83971;-64
2022/06/21 09:09:22;;;;;;;1.48;1.30;;;23.40;88.10;;;;;;6223573;28;84122;-64
2022/06/21 09:12:33;;;;;;;1.88;1.15;;;23.40;87.60;;;;;;6223790;28;82840;-64
2022/06/21 09:15:47;;;;;;;2.53;1.60;;;23.40;88.30;;;;;;6233640;28;84545;-64
2022/06/21 09:19:04;;;;;;;1.63;1.40;;;23.40;87.10;;;;;;6221653;28;84393;-64
2022/06/21 09:22:15;;;;;;;1.40;1.30;;;23.40;85.50;;;;;;6234306;28;84084;-65
2022/06/21 09:25:20;;;;;;;1.45;1.10;;;23.40;85.90;;;;;;6232997;28;82383;-64
2022/06/21 09:28:31;;;;;;;2.17;1.63;;;23.40;85.70;;;;;;6219496;28;84051;-64
2022/06/21 09:31:40;;;;;;;1.90;1.30;;;23.40;85.50;;;;;;6231953;28;84046;-64
2022/06/21 09:34:56;;;;;;;2.40;1.40;;;23.40;84.90;;;;;;6222846;28;83600;-64
2022/06/21 09:38:19;;;;;;;1.90;1.45;;;23.40;83.40;;;;;;6233318;28;84374;-64
2022/06/21 09:41:32;;;;;;;1.50;1.40;;;23.40;83.80;;;;;;6232259;28;84169;-65
2022/06/21 09:44:42;;;;;;;1.63;1.20;;;23.40;85.40;;;;;;6231219;28;83950;-64
2022/06/21 09:47:57;;;;;;;2.38;1.30;;;23.40;84.30;;;;;;6233289;28;84018;-64
2022/06/21 09:51:05;;;;;;;2.03;1.40;;;23.40;83.80;;;;;;6226984;28;84092;-64
2022/06/21 09:54:21;;;;;;;1.90;1.40;;;23.40;83.10;;;;;;6231379;28;84143;-64
2022/06/21 09:57:31;;;;;;;2.40;1.20;;;23.40;82.70;;;;;;6220544;28;83583;-64
2022/06/21 10:00:39;;;;;;;1.35;1.08;;;23.40;84.30;;;;;;6232080;28;84441;-64
2022/06/21 10:03:50;;;;;;;1.50;1.27;;;23.40;83.60;;;;;;6218111;28;84647;-65
2022/06/21 10:07:09;;;;;;;2.25;1.50;;;23.40;83.50;;;;;;6229369;28;84939;-65
2022/06/21 10:10:25;;;;;;;1.83;1.30;;;23.50;83.00;;;;;;6232772;28;84030;-64
2022/06/21 10:13:49;;;;;;;2.20;1.52;;;23.40;82.90;;;;;;6231894;28;84757;-64
2022/06/21 10:17:29;;;;;;;1.80;1.00;;;23.40;82.60;;;;;;6216964;28;83970;-64
2022/06/21 10:20:52;;;;;;;1.30;1.10;;;23.40;81.50;;;;;;6229121;28;83979;-64
2022/06/21 10:24:32;;;;;;;1.58;1.20;;;23.50;80.30;;;;;;6223169;28;84141;-64
2022/06/21 10:27:55;;;;;;;1.30;1.10;;;23.40;79.10;;;;;;6226812;28;84068;-64
2022/06/21 10:31:30;;;;;;;3.15;1.40;;;23.40;79.70;;;;;;6222653;28;83757;-64
2022/06/21 10:34:55;;;;;;;1.73;1.25;;;23.50;78.50;;;;;;6214942;28;84190;-64
2022/06/21 10:38:29;;;;;;;1.35;1.10;;;23.40;77.90;;;;;;6220590;28;85050;-64
2022/06/21 10:42:46;;;;;;;1.50;1.27;;;23.50;77.70;;;;;;6226229;28;84988;-64
2022/06/21 10:45:20;;;;;;;2.75;1.40;;;23.50;78.60;;;;;;6231752;28;82673;-64
2022/06/21 10:48:42;;;;;;;2.63;1.23;;;23.50;78.30;;;;;;6226373;28;84330;-64
2022/06/21 10:52:04;;;;;;;1.42;1.20;;;23.50;78.30;;;;;;6232388;28;82936;-64
2022/06/21 10:55:38;;;;;;;1.88;1.25;;;23.50;78.50;;;;;;6221728;28;84062;-64
2022/06/21 10:58:58;;;;;;;2.13;1.30;;;23.50;79.10;;;;;;6225830;28;83896;-65
2022/06/21 11:02:12;;;;;;;2.03;1.20;;;23.50;79.30;;;;;;6232280;28;84465;-64
2022/06/21 11:05:18;;;;;;;1.73;1.17;;;23.50;79.10;;;;;;6229980;28;83204;-65
2022/06/21 11:08:28;;;;;;;1.38;1.27;;;23.60;79.30;;;;;;6228224;28;84285;-64
2022/06/21 11:11:38;;;;;;;2.80;1.20;;;23.50;80.00;;;;;;6231315;28;84388;-67
2022/06/21 11:14:52;;;;;;;1.23;1.13;;;23.50;80.20;;;;;;6227851;28;84992;-67
2022/06/21 11:18:04;;;;;;;1.75;1.40;;;23.60;80.30;;;;;;6229226;28;84419;-67
2022/06/21 11:21:15;;;;;;;1.50;1.20;;;23.60;79.70;;;;;;6228346;28;81997;-65
2022/06/21 11:24:30;;;;;;;2.20;1.40;;;23.60;79.10;;;;;;6229381;28;84458;-65
2022/06/21 11:27:48;;;;;;;1.52;1.20;;;23.60;79.10;;;;;;6227088;28;84034;-65
2022/06/21 11:30:59;;;;;;;1.25;1.10;;;23.50;79.20;;;;;;6223373;28;84035;-65
2022/06/21 11:34:15;;;;;;;1.20;1.10;;;23.60;79.00;;;;;;6215709;28;84292;-65
2022/06/21 11:37:36;;;;;;;1.30;1.20;;;23.60;79.10;;;;;;6226193;28;83266;-64
2022/06/21 11:40:50;;;;;;;1.52;1.25;;;23.60;79.30;;;;;;6234960;28;84382;-65
2022/06/21 11:44:00;;;;;;;2.47;1.30;;;23.60;80.00;;;;;;6236014;28;84020;-65
2022/06/21 11:47:07;;;;;;;1.55;1.20;;;23.60;80.10;;;;;;6218956;28;84960;-65
2022/06/21 11:50:18;;;;;;;2.38;1.70;;;23.60;80.30;;;;;;6236341;28;84061;-65
2022/06/21 11:53:47;;;;;;;2.58;1.67;;;23.60;80.50;;;;;;6226834;28;84047;-65
2022/06/21 11:57:00;;;;;;;2.10;1.42;;;23.60;80.50;;;;;;6228044;28;84116;-65
2022/06/21 12:00:07;;;;;;;1.52;1.42;;;23.60;80.80;;;;;;6235521;28;84145;-65
2022/06/21 12:03:17;;;;;;;1.35;1.25;;;23.60;81.00;;;;;;6235412;28;84026;-65
2022/06/21 12:06:29;;;;;;;1.98;1.50;;;23.60;81.10;;;;;;6235672;28;84004;-65
2022/06/21 12:09:39;;;;;;;1.45;1.35;;;23.60;81.40;;;;;;6236410;28;83120;-64
2022/06/21 12:12:56;;;;;;;1.77;1.42;;;23.60;81.60;;;;;;6236006;28;84068;-64
2022/06/21 12:16:16;;;;;;;1.60;1.50;;;23.60;81.80;;;;;;6233924;28;84027;-64
2022/06/21 12:19:22;;;;;;;1.45;1.30;;;23.60;81.50;;;;;;6233961;28;85247;-64
2022/06/21 12:22:29;;;;;;;1.35;1.25;;;23.60;81.20;;;;;;6222488;28;84005;-64
2022/06/21 12:25:31;;;;;;;2.35;1.52;;;23.60;80.60;;;;;;6223891;28;84408;-64
2022/06/21 12:28:37;;;;;;;2.65;1.90;;;23.60;80.60;;;;;;6232637;28;83992;-64
2022/06/21 12:31:42;;;;;;;1.88;1.40;;;23.60;80.50;;;;;;6222521;28;84180;-65
2022/06/21 12:34:55;;;;;;;2.20;1.50;;;23.60;81.10;;;;;;6234497;28;84065;-65
2022/06/21 12:37:57;;;;;;;1.35;1.25;;;23.60;81.60;;;;;;6231451;28;84171;-64
2022/06/21 12:41:18;;;;;;;1.92;1.30;;;23.60;81.80;;;;;;6236120;28;83376;-65
2022/06/21 12:44:37;;;;;;;1.50;1.40;;;23.60;82.10;;;;;;6235036;28;84584;-64
2022/06/21 12:47:54;;;;;;;1.60;1.50;;;23.60;82.40;;;;;;6234896;28;84090;-65
2022/06/21 12:51:10;;;;;;;1.98;1.40;;;23.60;82.70;;;;;;6233601;28;84889;-65
2022/06/21 12:54:24;;;;;;;1.40;1.30;;;23.60;82.90;;;;;;6231631;28;84283;-64
2022/06/21 12:57:49;;;;;;;1.85;1.48;;;23.60;82.90;;;;;;6233936;28;82948;-65
2022/06/21 13:00:53;;;;;;;1.85;1.60;;;23.60;82.30;;;;;;6223962;28;84353;-65
2022/06/21 13:04:19;;;;;;;2.50;1.42;;;23.60;82.30;;;;;;6233758;28;84212;-65
2022/06/21 13:07:40;;;;;;;1.55;1.45;;;23.60;82.30;;;;;;6233723;28;82995;-65
2022/06/21 13:10:51;;;;;;;1.95;1.60;;;23.60;82.10;;;;;;6232380;28;84180;-65
2022/06/21 13:14:17;;;;;;;1.40;1.30;;;23.60;81.30;;;;;;6232008;28;83300;-65
2022/06/21 13:17:36;;;;;;;1.63;1.33;;;23.60;80.60;;;;;;6222303;28;84094;-65
2022/06/21 13:20:50;;;;;;;1.60;1.50;;;23.70;81.00;;;;;;6234582;28;82938;-65
2022/06/21 13:24:07;;;;;;;2.58;1.50;;;23.60;81.60;;;;;;6232628;28;84932;-65
2022/06/21 13:27:21;;;;;;;2.28;1.45;;;23.60;81.10;;;;;;6232397;28;84022;-65
2022/06/21 13:30:52;;;;;;;1.42;1.25;;;23.60;80.80;;;;;;6232164;28;83952;-65
2022/06/21 13:34:01;;;;;;;2.72;1.65;;;23.60;80.50;;;;;;6233393;28;84374;-66
2022/06/21 13:37:12;;;;;;;1.88;1.50;;;23.60;80.90;;;;;;6222399;28;83908;-65
2022/06/21 13:40:25;;;;;;;1.75;1.65;;;23.70;81.20;;;;;;6225661;28;85168;-65
2022/06/21 13:43:35;;;;;;;2.30;1.50;;;23.60;81.50;;;;;;6226840;28;83723;-65
2022/06/21 13:46:41;;;;;;;1.70;1.58;;;23.60;81.50;;;;;;6218227;28;82184;-65
2022/06/21 13:49:47;;;;;;;2.33;1.50;;;23.60;81.80;;;;;;6217357;28;84078;-65
2022/06/21 13:52:56;;;;;;;1.45;1.30;;;23.60;81.40;;;;;;6208598;28;84162;-65
2022/06/21 13:56:06;;;;;;;2.53;1.52;;;23.70;81.10;;;;;;6231306;28;84951;-65
2022/06/21 13:59:14;;;;;;;2.83;1.45;;;23.70;80.70;;;;;;6230935;28;84296;-66
2022/06/21 14:02:23;;;;;;;1.80;1.40;;;23.70;80.30;;;;;;6222553;28;84236;-65
2022/06/21 14:05:31;;;;;;;1.23;1.13;;;23.70;80.40;;;;;;6222254;28;84548;-66
2022/06/21 14:08:42;;;;;;;1.63;1.52;;;23.70;80.80;;;;;;6233593;28;85224;-66
2022/06/21 14:11:52;;;;;;;1.95;1.50;;;23.70;80.80;;;;;;6231925;28;84145;-66
2022/06/21 14:14:58;;;;;;;1.70;1.52;;;23.70;80.60;;;;;;6233664;28;84319;-65
2022/06/21 14:18:10;;;;;;;1.90;1.60;;;23.70;80.50;;;;;;6220768;28;83271;-66
2022/06/21 14:21:21;;;;;;;1.55;1.38;;;23.70;80.20;;;;;;6231131;28;84084;-66
2022/06/21 14:24:28;;;;;;;1.83;1.50;;;23.70;79.90;;;;;;6233033;28;84006;-65
2022/06/21 14:27:40;;;;;;;2.00;1.40;;;23.70;80.30;;;;;;6227874;28;85067;-66
2022/06/21 14:30:49;;;;;;;1.67;1.58;;;23.70;80.30;;;;;;6225505;28;82827;-66
2022/06/21 14:33:57;;;;;;;1.60;1.50;;;23.70;80.50;;;;;;6213495;28;84039;-66
2022/06/21 14:37:07;;;;;;;1.73;1.40;;;23.70;80.70;;;;;;6226290;28;84311;-66
2022/06/21 14:40:16;;;;;;;1.50;1.38;;;23.70;81.30;;;;;;6225397;28;83963;-66
2022/06/21 14:43:42;;;;;;;1.65;1.40;;;23.70;81.70;;;;;;6232086;28;84059;-66
2022/06/21 14:46:49;;;;;;;2.55;1.58;;;23.70;82.10;;;;;;6220397;28;82999;-67
2022/06/21 14:50:01;;;;;;;2.15;1.40;;;23.70;82.50;;;;;;6228473;28;84217;-66
2022/06/21 14:53:39;;;;;;;2.50;1.38;;;23.70;82.60;;;;;;6225733;28;82955;-66
2022/06/21 14:57:04;;;;;;;1.83;1.30;;;23.70;82.90;;;;;;6231676;28;82801;-66
2022/06/21 15:00:17;;;;;;;1.40;1.30;;;23.70;83.30;;;;;;6231679;28;85831;-66
2022/06/21 15:03:29;;;;;;;1.45;1.35;;;23.70;83.70;;;;;;6219468;28;84081;-66
2022/06/21 15:06:33;;;;;;;1.60;1.40;;;23.70;84.20;;;;;;6233790;28;83182;-66
2022/06/21 15:09:43;;;;;;;2.05;1.23;;;23.70;84.50;;;;;;6227453;28;83895;-66
2022/06/21 15:12:53;;;;;;;1.67;1.40;;;23.70;84.70;;;;;;6233478;28;84126;-66
2022/06/21 15:15:57;;;;;;;2.50;1.50;;;23.70;84.90;;;;;;6234898;28;84529;-65
2022/06/21 15:19:53;;;;;;;1.65;1.30;;;23.70;85.20;;;;;;6235992;28;84084;-66
2022/06/21 15:22:37;;;;;;;1.95;1.23;;;23.70;85.30;;;;;;6218357;28;82292;-65
2022/06/21 15:25:48;;;;;;;2.22;1.38;;;23.70;85.50;;;;;;6232703;28;84105;-65
2022/06/21 15:28:51;;;;;;;2.13;1.50;;;23.70;85.60;;;;;;6234242;28;84319;-66
2022/06/21 15:31:58;;;;;;;1.67;1.30;;;23.70;86.00;;;;;;6229856;28;85056;-66
2022/06/21 15:35:03;;;;;;;1.63;1.50;;;23.80;86.20;;;;;;6235450;28;84465;-65
2022/06/21 15:38:08;;;;;;;2.33;1.58;;;23.70;86.50;;;;;;6232569;28;83927;-65
2022/06/21 15:41:16;;;;;;;1.50;1.40;;;23.70;86.70;;;;;;6234753;28;84992;-66
2022/06/21 15:44:30;;;;;;;1.55;1.40;;;23.80;86.70;;;;;;6231939;28;83292;-65
2022/06/21 15:51:11;;;;;;;2.03;1.50;;;23.70;87.00;;;;;;6227830;28;82181;-66
2022/06/21 15:54:18;;;;;;;3.28;1.75;;;23.80;87.20;;;;;;6236029;28;83438;-66
2022/06/21 15:57:25;;;;;;;2.83;1.50;;;23.70;87.20;;;;;;6235654;28;84159;-66
2022/06/21 16:00:34;;;;;;;1.60;1.50;;;23.70;87.20;;;;;;6232220;28;84034;-66
2022/06/21 16:03:43;;;;;;;1.38;1.25;;;23.70;87.40;;;;;;6223672;28;84179;-66
2022/06/21 16:06:50;;;;;;;1.98;1.58;;;23.80;87.60;;;;;;6224152;28;84411;-66
2022/06/21 16:09:55;;;;;;;1.58;1.30;;;23.80;87.60;;;;;;6232418;28;83444;-66
2022/06/21 16:13:02;;;;;;;1.40;1.30;;;23.80;87.70;;;;;;6234746;28;83944;-66
2022/06/21 16:16:08;;;;;;;3.22;1.55;;;23.80;87.90;;;;;;6228548;28;83916;-65
2022/06/21 16:19:13;;;;;;;1.60;1.50;;;23.80;88.10;;;;;;6224601;28;83714;-66
2022/06/21 16:22:16;;;;;;;1.50;1.40;;;23.80;88.60;;;;;;6227354;28;84346;-66
2022/06/21 16:25:40;;;;;;;1.65;1.55;;;23.80;88.60;;;;;;6234595;28;83886;-66
2022/06/21 16:28:49;;;;;;;1.85;1.63;;;23.80;88.80;;;;;;6219858;28;83004;-66
2022/06/21 16:35:23;;;;;;;1.77;1.60;;;23.90;89.20;;;;;;6212477;28;83230;-65
2022/06/21 16:38:33;;;;;;;2.05;1.75;;;23.80;89.10;;;;;;6231785;28;83951;-65
2022/06/21 16:45:05;;;;;;;1.50;1.40;;;23.80;89.40;;;;;;6224351;28;82171;-66
2022/06/21 16:48:13;;;;;;;1.60;1.50;;;23.80;89.50;;;;;;6228258;28;82979;-65
2022/06/21 16:51:28;;;;;;;1.50;1.40;;;23.90;89.60;;;;;;6218533;28;84232;-65
2022/06/21 16:54:33;;;;;;;2.05;1.50;;;23.90;90.50;;;;;;6231065;28;84050;-65